sensor_id;sensor_type;location;lat;lon;timestamp;P1;durP1;ratioP1;P2;durP2;ratioP2
38499;SDS011;24269;51.894;4.622;2022-12-29T00:01:55;1.77;;;0.93;;
38499;SDS011;24269;51.894;4.622;2022-12-29T00:04:21;2.05;;;0.85;;
38499;SDS011;24269;51.894;4.622;2022-12-29T00:06:47;1.67;;;1.00;;
38499;SDS011;24269;51.894;4.622;2022-12-29T00:09:13;1.88;;;1.08;;
38499;SDS011;24269;51.894;4.622;2022-12-29T00:11:40;2.75;;;1.00;;
38499;SDS011;24269;51.894;4.622;2022-12-29T00:14:08;1.75;;;0.93;;
38499;SDS011;24269;51.894;4.622;2022-12-29T00:16:53;1.20;;;0.80;;
38499;SDS011;24269;51.894;4.622;2022-12-29T00:19:19;2.38;;;1.20;;
38499;SDS011;24269;51.894;4.622;2022-12-29T00:22:04;2.03;;;0.90;;
38499;SDS011;24269;51.894;4.622;2022-12-29T00:24:48;1.30;;;0.70;;
38499;SDS011;24269;51.894;4.622;2022-12-29T00:27:32;2.88;;;1.00;;
38499;SDS011;24269;51.894;4.622;2022-12-29T00:30:18;1.80;;;0.77;;
38499;SDS011;24269;51.894;4.622;2022-12-29T00:33:10;2.33;;;1.13;;
38499;SDS011;24269;51.894;4.622;2022-12-29T00:35:58;2.17;;;0.85;;
38499;SDS011;24269;51.894;4.622;2022-12-29T00:38:27;1.67;;;0.80;;
38499;SDS011;24269;51.894;4.622;2022-12-29T00:41:12;1.17;;;0.80;;
38499;SDS011;24269;51.894;4.622;2022-12-29T00:43:57;1.45;;;0.70;;
38499;SDS011;24269;51.894;4.622;2022-12-29T00:46:35;1.15;;;0.65;;
38499;SDS011;24269;51.894;4.622;2022-12-29T00:49:01;1.83;;;0.60;;
38499;SDS011;24269;51.894;4.622;2022-12-29T00:51:46;1.80;;;0.65;;
38499;SDS011;24269;51.894;4.622;2022-12-29T00:54:12;2.28;;;0.95;;
38499;SDS011;24269;51.894;4.622;2022-12-29T00:56:39;1.67;;;0.70;;
38499;SDS011;24269;51.894;4.622;2022-12-29T00:59:05;1.10;;;0.75;;
38499;SDS011;24269;51.894;4.622;2022-12-29T01:01:33;1.85;;;0.60;;
38499;SDS011;24269;51.894;4.622;2022-12-29T01:03:59;1.92;;;0.77;;
38499;SDS011;24269;51.894;4.622;2022-12-29T01:06:25;1.05;;;0.65;;
38499;SDS011;24269;51.894;4.622;2022-12-29T01:08:51;1.90;;;0.73;;
38499;SDS011;24269;51.894;4.622;2022-12-29T01:11:35;1.02;;;0.70;;
38499;SDS011;24269;51.894;4.622;2022-12-29T01:14:01;2.45;;;0.60;;
38499;SDS011;24269;51.894;4.622;2022-12-29T01:16:28;1.00;;;0.68;;
38499;SDS011;24269;51.894;4.622;2022-12-29T01:18:54;2.70;;;1.05;;
38499;SDS011;24269;51.894;4.622;2022-12-29T01:21:20;1.38;;;0.70;;
38499;SDS011;24269;51.894;4.622;2022-12-29T01:23:45;1.33;;;0.70;;
38499;SDS011;24269;51.894;4.622;2022-12-29T01:26:11;1.08;;;0.60;;
38499;SDS011;24269;51.894;4.622;2022-12-29T01:28:38;2.10;;;0.90;;
38499;SDS011;24269;51.894;4.622;2022-12-29T01:31:08;4.20;;;1.08;;
38499;SDS011;24269;51.894;4.622;2022-12-29T01:33:34;1.15;;;0.70;;
38499;SDS011;24269;51.894;4.622;2022-12-29T01:36:01;0.98;;;0.60;;
38499;SDS011;24269;51.894;4.622;2022-12-29T01:38:31;2.30;;;0.90;;
38499;SDS011;24269;51.894;4.622;2022-12-29T01:40:57;5.15;;;1.20;;
38499;SDS011;24269;51.894;4.622;2022-12-29T01:46:14;1.48;;;0.70;;
38499;SDS011;24269;51.894;4.622;2022-12-29T01:48:55;2.78;;;0.93;;
38499;SDS011;24269;51.894;4.622;2022-12-29T01:51:33;0.88;;;0.60;;
38499;SDS011;24269;51.894;4.622;2022-12-29T01:54:04;3.20;;;0.80;;
38499;SDS011;24269;51.894;4.622;2022-12-29T01:56:38;1.75;;;0.98;;
38499;SDS011;24269;51.894;4.622;2022-12-29T01:59:05;2.38;;;0.85;;
38499;SDS011;24269;51.894;4.622;2022-12-29T02:04:01;1.23;;;0.60;;
38499;SDS011;24269;51.894;4.622;2022-12-29T02:06:29;1.48;;;0.57;;
38499;SDS011;24269;51.894;4.622;2022-12-29T02:09:00;2.83;;;0.80;;
38499;SDS011;24269;51.894;4.622;2022-12-29T02:11:26;3.33;;;1.10;;
38499;SDS011;24269;51.894;4.622;2022-12-29T02:13:54;3.13;;;0.60;;
38499;SDS011;24269;51.894;4.622;2022-12-29T02:16:27;3.10;;;0.57;;
38499;SDS011;24269;51.894;4.622;2022-12-29T02:40:29;2.35;;;0.40;;
38499;SDS011;24269;51.894;4.622;2022-12-29T02:48:30;0.75;;;0.30;;
38499;SDS011;24269;51.894;4.622;2022-12-29T02:51:08;1.63;;;0.40;;
38499;SDS011;24269;51.894;4.622;2022-12-29T02:53:40;1.83;;;0.57;;
38499;SDS011;24269;51.894;4.622;2022-12-29T02:56:25;3.40;;;0.63;;
38499;SDS011;24269;51.894;4.622;2022-12-29T02:58:50;2.72;;;0.70;;
38499;SDS011;24269;51.894;4.622;2022-12-29T03:01:23;2.78;;;0.75;;
38499;SDS011;24269;51.894;4.622;2022-12-29T03:04:45;1.40;;;0.43;;
38499;SDS011;24269;51.894;4.622;2022-12-29T03:10:00;2.75;;;0.50;;
38499;SDS011;24269;51.894;4.622;2022-12-29T03:12:56;4.75;;;0.63;;
38499;SDS011;24269;51.894;4.622;2022-12-29T03:21:42;2.33;;;0.60;;
38499;SDS011;24269;51.894;4.622;2022-12-29T03:24:32;2.65;;;0.50;;
38499;SDS011;24269;51.894;4.622;2022-12-29T03:27:05;2.78;;;0.60;;
38499;SDS011;24269;51.894;4.622;2022-12-29T03:29:37;1.27;;;0.60;;
38499;SDS011;24269;51.894;4.622;2022-12-29T03:32:07;2.70;;;0.50;;
38499;SDS011;24269;51.894;4.622;2022-12-29T03:34:36;1.23;;;0.60;;
38499;SDS011;24269;51.894;4.622;2022-12-29T03:37:11;0.55;;;0.50;;
38499;SDS011;24269;51.894;4.622;2022-12-29T03:39:40;5.45;;;0.77;;
38499;SDS011;24269;51.894;4.622;2022-12-29T03:42:08;2.47;;;0.95;;
38499;SDS011;24269;51.894;4.622;2022-12-29T03:44:39;2.80;;;0.50;;
38499;SDS011;24269;51.894;4.622;2022-12-29T03:47:06;1.58;;;0.52;;
38499;SDS011;24269;51.894;4.622;2022-12-29T03:49:33;1.95;;;0.40;;
38499;SDS011;24269;51.894;4.622;2022-12-29T03:51:58;2.55;;;0.85;;
38499;SDS011;24269;51.894;4.622;2022-12-29T03:54:24;2.35;;;0.50;;
38499;SDS011;24269;51.894;4.622;2022-12-29T03:56:50;2.33;;;0.50;;
38499;SDS011;24269;51.894;4.622;2022-12-29T03:59:16;4.57;;;0.50;;
38499;SDS011;24269;51.894;4.622;2022-12-29T04:01:41;3.75;;;0.60;;
38499;SDS011;24269;51.894;4.622;2022-12-29T04:04:07;3.95;;;0.95;;
38499;SDS011;24269;51.894;4.622;2022-12-29T04:06:32;7.65;;;1.08;;
38499;SDS011;24269;51.894;4.622;2022-12-29T04:08:59;6.65;;;1.02;;
38499;SDS011;24269;51.894;4.622;2022-12-29T04:11:25;4.82;;;1.00;;
38499;SDS011;24269;51.894;4.622;2022-12-29T04:13:51;5.68;;;0.95;;
38499;SDS011;24269;51.894;4.622;2022-12-29T04:16:16;4.32;;;0.90;;
38499;SDS011;24269;51.894;4.622;2022-12-29T04:18:42;3.05;;;0.60;;
38499;SDS011;24269;51.894;4.622;2022-12-29T04:21:08;5.07;;;0.68;;
38499;SDS011;24269;51.894;4.622;2022-12-29T04:23:34;4.60;;;0.60;;
38499;SDS011;24269;51.894;4.622;2022-12-29T04:26:01;5.43;;;1.00;;
38499;SDS011;24269;51.894;4.622;2022-12-29T04:28:28;5.70;;;0.63;;
38499;SDS011;24269;51.894;4.622;2022-12-29T04:30:54;4.07;;;0.98;;
38499;SDS011;24269;51.894;4.622;2022-12-29T04:33:20;5.47;;;0.70;;
38499;SDS011;24269;51.894;4.622;2022-12-29T04:35:46;7.18;;;1.08;;
38499;SDS011;24269;51.894;4.622;2022-12-29T04:38:12;9.63;;;1.38;;
38499;SDS011;24269;51.894;4.622;2022-12-29T04:40:39;5.22;;;0.70;;
38499;SDS011;24269;51.894;4.622;2022-12-29T04:43:05;3.47;;;0.82;;
38499;SDS011;24269;51.894;4.622;2022-12-29T04:45:31;10.50;;;1.00;;
38499;SDS011;24269;51.894;4.622;2022-12-29T04:47:57;4.63;;;0.80;;
38499;SDS011;24269;51.894;4.622;2022-12-29T04:50:23;3.78;;;0.63;;
38499;SDS011;24269;51.894;4.622;2022-12-29T04:52:48;7.30;;;1.20;;
38499;SDS011;24269;51.894;4.622;2022-12-29T04:55:14;3.47;;;0.77;;
38499;SDS011;24269;51.894;4.622;2022-12-29T04:57:39;7.22;;;0.95;;
38499;SDS011;24269;51.894;4.622;2022-12-29T05:00:05;7.22;;;1.05;;
38499;SDS011;24269;51.894;4.622;2022-12-29T05:02:31;8.38;;;0.85;;
38499;SDS011;24269;51.894;4.622;2022-12-29T05:04:57;5.18;;;0.85;;
38499;SDS011;24269;51.894;4.622;2022-12-29T05:07:23;4.50;;;0.70;;
38499;SDS011;24269;51.894;4.622;2022-12-29T05:09:49;4.97;;;1.10;;
38499;SDS011;24269;51.894;4.622;2022-12-29T05:12:15;5.15;;;1.00;;
38499;SDS011;24269;51.894;4.622;2022-12-29T05:14:41;3.42;;;0.80;;
38499;SDS011;24269;51.894;4.622;2022-12-29T05:17:07;10.88;;;1.67;;
38499;SDS011;24269;51.894;4.622;2022-12-29T05:19:32;6.05;;;1.20;;
38499;SDS011;24269;51.894;4.622;2022-12-29T05:21:58;6.22;;;0.70;;
38499;SDS011;24269;51.894;4.622;2022-12-29T05:24:23;6.57;;;1.00;;
38499;SDS011;24269;51.894;4.622;2022-12-29T05:26:49;9.85;;;1.20;;
38499;SDS011;24269;51.894;4.622;2022-12-29T05:29:15;7.00;;;1.05;;
38499;SDS011;24269;51.894;4.622;2022-12-29T05:31:40;4.57;;;1.15;;
38499;SDS011;24269;51.894;4.622;2022-12-29T05:34:06;7.57;;;0.73;;
38499;SDS011;24269;51.894;4.622;2022-12-29T05:36:31;9.35;;;1.73;;
38499;SDS011;24269;51.894;4.622;2022-12-29T05:38:57;6.25;;;1.08;;
38499;SDS011;24269;51.894;4.622;2022-12-29T05:41:23;6.75;;;1.50;;
38499;SDS011;24269;51.894;4.622;2022-12-29T05:43:48;6.72;;;1.20;;
38499;SDS011;24269;51.894;4.622;2022-12-29T05:46:14;7.65;;;1.30;;
38499;SDS011;24269;51.894;4.622;2022-12-29T05:48:39;6.28;;;1.35;;
38499;SDS011;24269;51.894;4.622;2022-12-29T05:51:05;6.75;;;1.02;;
38499;SDS011;24269;51.894;4.622;2022-12-29T05:53:31;7.65;;;1.10;;
38499;SDS011;24269;51.894;4.622;2022-12-29T05:55:56;9.57;;;0.90;;
38499;SDS011;24269;51.894;4.622;2022-12-29T05:58:22;8.52;;;1.15;;
38499;SDS011;24269;51.894;4.622;2022-12-29T06:00:47;7.32;;;1.35;;
38499;SDS011;24269;51.894;4.622;2022-12-29T06:03:13;7.00;;;1.17;;
38499;SDS011;24269;51.894;4.622;2022-12-29T06:05:39;3.75;;;0.70;;
38499;SDS011;24269;51.894;4.622;2022-12-29T06:08:04;6.53;;;1.05;;
38499;SDS011;24269;51.894;4.622;2022-12-29T06:10:30;8.38;;;1.08;;
38499;SDS011;24269;51.894;4.622;2022-12-29T06:12:55;6.68;;;0.90;;
38499;SDS011;24269;51.894;4.622;2022-12-29T06:15:21;6.97;;;0.85;;
38499;SDS011;24269;51.894;4.622;2022-12-29T06:17:47;5.55;;;1.13;;
38499;SDS011;24269;51.894;4.622;2022-12-29T06:20:12;8.27;;;1.00;;
38499;SDS011;24269;51.894;4.622;2022-12-29T06:22:38;11.30;;;1.20;;
38499;SDS011;24269;51.894;4.622;2022-12-29T06:25:04;4.53;;;1.10;;
38499;SDS011;24269;51.894;4.622;2022-12-29T06:27:30;3.17;;;0.50;;
38499;SDS011;24269;51.894;4.622;2022-12-29T06:29:56;8.10;;;0.98;;
38499;SDS011;24269;51.894;4.622;2022-12-29T06:32:21;6.57;;;1.17;;
38499;SDS011;24269;51.894;4.622;2022-12-29T06:34:47;4.43;;;0.98;;
38499;SDS011;24269;51.894;4.622;2022-12-29T06:37:12;7.88;;;1.27;;
38499;SDS011;24269;51.894;4.622;2022-12-29T06:39:39;5.88;;;1.13;;
38499;SDS011;24269;51.894;4.622;2022-12-29T06:42:05;3.28;;;0.50;;
38499;SDS011;24269;51.894;4.622;2022-12-29T06:44:31;4.88;;;0.98;;
38499;SDS011;24269;51.894;4.622;2022-12-29T06:46:56;5.15;;;1.05;;
38499;SDS011;24269;51.894;4.622;2022-12-29T06:49:22;6.70;;;0.70;;
38499;SDS011;24269;51.894;4.622;2022-12-29T06:51:48;5.57;;;1.02;;
38499;SDS011;24269;51.894;4.622;2022-12-29T06:54:13;7.35;;;1.08;;
38499;SDS011;24269;51.894;4.622;2022-12-29T06:56:39;5.65;;;1.20;;
38499;SDS011;24269;51.894;4.622;2022-12-29T06:59:05;6.60;;;1.45;;
38499;SDS011;24269;51.894;4.622;2022-12-29T07:01:30;9.00;;;1.10;;
38499;SDS011;24269;51.894;4.622;2022-12-29T07:03:56;5.32;;;1.15;;
38499;SDS011;24269;51.894;4.622;2022-12-29T07:06:22;5.18;;;1.25;;
38499;SDS011;24269;51.894;4.622;2022-12-29T07:08:48;5.10;;;1.00;;
38499;SDS011;24269;51.894;4.622;2022-12-29T07:11:13;7.70;;;1.40;;
38499;SDS011;24269;51.894;4.622;2022-12-29T07:13:39;5.43;;;1.38;;
38499;SDS011;24269;51.894;4.622;2022-12-29T07:16:08;4.30;;;0.73;;
38499;SDS011;24269;51.894;4.622;2022-12-29T07:18:35;3.50;;;0.80;;
38499;SDS011;24269;51.894;4.622;2022-12-29T07:21:01;10.35;;;1.20;;
38499;SDS011;24269;51.894;4.622;2022-12-29T07:23:27;7.82;;;1.67;;
38499;SDS011;24269;51.894;4.622;2022-12-29T07:26:03;8.60;;;1.15;;
38499;SDS011;24269;51.894;4.622;2022-12-29T07:28:35;6.32;;;1.02;;
38499;SDS011;24269;51.894;4.622;2022-12-29T07:31:02;5.50;;;1.10;;
38499;SDS011;24269;51.894;4.622;2022-12-29T07:33:29;10.93;;;1.30;;
38499;SDS011;24269;51.894;4.622;2022-12-29T07:35:55;6.88;;;0.82;;
38499;SDS011;24269;51.894;4.622;2022-12-29T07:38:21;5.95;;;0.70;;
38499;SDS011;24269;51.894;4.622;2022-12-29T07:40:46;7.00;;;1.25;;
38499;SDS011;24269;51.894;4.622;2022-12-29T07:43:12;6.22;;;1.13;;
38499;SDS011;24269;51.894;4.622;2022-12-29T07:45:38;6.45;;;0.98;;
38499;SDS011;24269;51.894;4.622;2022-12-29T07:48:04;7.05;;;1.10;;
38499;SDS011;24269;51.894;4.622;2022-12-29T07:50:32;8.35;;;1.40;;
38499;SDS011;24269;51.894;4.622;2022-12-29T07:52:58;9.82;;;1.40;;
38499;SDS011;24269;51.894;4.622;2022-12-29T07:55:24;4.80;;;1.25;;
38499;SDS011;24269;51.894;4.622;2022-12-29T07:57:52;11.27;;;1.95;;
38499;SDS011;24269;51.894;4.622;2022-12-29T08:00:18;13.52;;;1.70;;
38499;SDS011;24269;51.894;4.622;2022-12-29T08:02:45;9.32;;;1.65;;
38499;SDS011;24269;51.894;4.622;2022-12-29T08:05:10;11.43;;;1.63;;
38499;SDS011;24269;51.894;4.622;2022-12-29T08:07:36;7.22;;;1.00;;
38499;SDS011;24269;51.894;4.622;2022-12-29T08:10:02;4.40;;;0.82;;
38499;SDS011;24269;51.894;4.622;2022-12-29T08:12:28;5.65;;;1.00;;
38499;SDS011;24269;51.894;4.622;2022-12-29T08:14:54;6.80;;;1.08;;
38499;SDS011;24269;51.894;4.622;2022-12-29T08:17:19;5.35;;;0.93;;
38499;SDS011;24269;51.894;4.622;2022-12-29T08:19:45;6.88;;;1.00;;
38499;SDS011;24269;51.894;4.622;2022-12-29T08:22:10;7.00;;;1.63;;
38499;SDS011;24269;51.894;4.622;2022-12-29T08:24:36;8.23;;;1.17;;
38499;SDS011;24269;51.894;4.622;2022-12-29T08:27:01;7.25;;;1.20;;
38499;SDS011;24269;51.894;4.622;2022-12-29T08:29:27;4.22;;;1.15;;
38499;SDS011;24269;51.894;4.622;2022-12-29T08:31:53;7.15;;;1.05;;
38499;SDS011;24269;51.894;4.622;2022-12-29T08:34:18;6.13;;;1.13;;
38499;SDS011;24269;51.894;4.622;2022-12-29T08:36:44;6.78;;;1.00;;
38499;SDS011;24269;51.894;4.622;2022-12-29T08:39:09;8.82;;;1.38;;
38499;SDS011;24269;51.894;4.622;2022-12-29T08:41:35;7.70;;;1.30;;
38499;SDS011;24269;51.894;4.622;2022-12-29T08:44:01;4.60;;;0.98;;
38499;SDS011;24269;51.894;4.622;2022-12-29T08:46:26;6.82;;;1.38;;
38499;SDS011;24269;51.894;4.622;2022-12-29T08:48:52;7.15;;;1.15;;
38499;SDS011;24269;51.894;4.622;2022-12-29T08:51:18;9.27;;;1.77;;
38499;SDS011;24269;51.894;4.622;2022-12-29T08:53:44;10.82;;;1.95;;
38499;SDS011;24269;51.894;4.622;2022-12-29T08:56:10;8.70;;;1.27;;
38499;SDS011;24269;51.894;4.622;2022-12-29T08:58:36;8.60;;;2.30;;
38499;SDS011;24269;51.894;4.622;2022-12-29T09:01:02;11.02;;;1.65;;
38499;SDS011;24269;51.894;4.622;2022-12-29T09:03:28;8.15;;;1.40;;
38499;SDS011;24269;51.894;4.622;2022-12-29T09:05:54;7.25;;;1.02;;
38499;SDS011;24269;51.894;4.622;2022-12-29T09:08:20;8.02;;;1.30;;
38499;SDS011;24269;51.894;4.622;2022-12-29T09:10:46;12.10;;;1.20;;
38499;SDS011;24269;51.894;4.622;2022-12-29T09:13:12;8.60;;;1.45;;
38499;SDS011;24269;51.894;4.622;2022-12-29T09:15:39;5.47;;;0.90;;
38499;SDS011;24269;51.894;4.622;2022-12-29T09:18:06;5.93;;;1.42;;
38499;SDS011;24269;51.894;4.622;2022-12-29T09:20:32;6.57;;;1.20;;
38499;SDS011;24269;51.894;4.622;2022-12-29T09:22:58;7.38;;;0.98;;
38499;SDS011;24269;51.894;4.622;2022-12-29T09:25:24;4.70;;;0.93;;
38499;SDS011;24269;51.894;4.622;2022-12-29T09:27:50;3.70;;;0.90;;
38499;SDS011;24269;51.894;4.622;2022-12-29T09:30:18;5.45;;;0.70;;
38499;SDS011;24269;51.894;4.622;2022-12-29T09:32:45;5.03;;;0.75;;
38499;SDS011;24269;51.894;4.622;2022-12-29T09:35:13;5.45;;;1.00;;
38499;SDS011;24269;51.894;4.622;2022-12-29T09:37:39;4.80;;;0.60;;
38499;SDS011;24269;51.894;4.622;2022-12-29T09:40:05;4.88;;;1.30;;
38499;SDS011;24269;51.894;4.622;2022-12-29T09:42:35;3.42;;;0.65;;
38499;SDS011;24269;51.894;4.622;2022-12-29T09:47:53;5.97;;;0.88;;
38499;SDS011;24269;51.894;4.622;2022-12-29T09:50:30;2.95;;;0.57;;
38499;SDS011;24269;51.894;4.622;2022-12-29T09:53:03;4.57;;;0.90;;
38499;SDS011;24269;51.894;4.622;2022-12-29T09:55:50;5.07;;;1.02;;
38499;SDS011;24269;51.894;4.622;2022-12-29T09:58:52;6.38;;;1.15;;
38499;SDS011;24269;51.894;4.622;2022-12-29T10:01:36;8.88;;;2.10;;
38499;SDS011;24269;51.894;4.622;2022-12-29T10:04:09;7.97;;;2.05;;
38499;SDS011;24269;51.894;4.622;2022-12-29T10:06:39;9.35;;;1.80;;
38499;SDS011;24269;51.894;4.622;2022-12-29T10:09:25;9.70;;;2.00;;
38499;SDS011;24269;51.894;4.622;2022-12-29T10:12:36;7.38;;;1.48;;
38499;SDS011;24269;51.894;4.622;2022-12-29T10:20:57;6.80;;;1.20;;
38499;SDS011;24269;51.894;4.622;2022-12-29T10:23:53;6.90;;;1.90;;
38499;SDS011;24269;51.894;4.622;2022-12-29T10:26:26;10.18;;;1.60;;
38499;SDS011;24269;51.894;4.622;2022-12-29T10:29:05;14.98;;;1.88;;
38499;SDS011;24269;51.894;4.622;2022-12-29T10:31:39;8.30;;;1.40;;
38499;SDS011;24269;51.894;4.622;2022-12-29T10:34:21;9.57;;;2.05;;
38499;SDS011;24269;51.894;4.622;2022-12-29T10:36:57;11.05;;;1.92;;
38499;SDS011;24269;51.894;4.622;2022-12-29T10:39:45;11.15;;;2.03;;
38499;SDS011;24269;51.894;4.622;2022-12-29T10:44:58;15.23;;;2.13;;
38499;SDS011;24269;51.894;4.622;2022-12-29T10:47:25;11.07;;;1.90;;
38499;SDS011;24269;51.894;4.622;2022-12-29T10:49:54;11.98;;;1.63;;
38499;SDS011;24269;51.894;4.622;2022-12-29T10:52:20;10.10;;;1.42;;
38499;SDS011;24269;51.894;4.622;2022-12-29T11:00:22;10.68;;;1.80;;
38499;SDS011;24269;51.894;4.622;2022-12-29T11:03:10;13.23;;;1.98;;
38499;SDS011;24269;51.894;4.622;2022-12-29T11:08:27;8.95;;;2.13;;
38499;SDS011;24269;51.894;4.622;2022-12-29T11:11:00;12.65;;;2.35;;
38499;SDS011;24269;51.894;4.622;2022-12-29T11:13:29;11.63;;;2.45;;
38499;SDS011;24269;51.894;4.622;2022-12-29T11:15:59;11.07;;;2.30;;
38499;SDS011;24269;51.894;4.622;2022-12-29T11:18:32;12.63;;;1.67;;
38499;SDS011;24269;51.894;4.622;2022-12-29T11:21:02;13.35;;;1.83;;
38499;SDS011;24269;51.894;4.622;2022-12-29T11:28:35;8.32;;;2.22;;
38499;SDS011;24269;51.894;4.622;2022-12-29T11:31:06;10.98;;;1.95;;
38499;SDS011;24269;51.894;4.622;2022-12-29T11:33:33;9.38;;;1.75;;
38499;SDS011;24269;51.894;4.622;2022-12-29T11:38:36;10.38;;;1.95;;
38499;SDS011;24269;51.894;4.622;2022-12-29T11:41:05;10.05;;;1.90;;
38499;SDS011;24269;51.894;4.622;2022-12-29T11:43:38;13.80;;;1.75;;
38499;SDS011;24269;51.894;4.622;2022-12-29T11:46:14;10.35;;;1.75;;
38499;SDS011;24269;51.894;4.622;2022-12-29T11:48:42;10.13;;;1.80;;
38499;SDS011;24269;51.894;4.622;2022-12-29T11:51:09;9.13;;;1.70;;
38499;SDS011;24269;51.894;4.622;2022-12-29T11:56:10;8.10;;;1.45;;
38499;SDS011;24269;51.894;4.622;2022-12-29T11:58:41;8.95;;;1.63;;
38499;SDS011;24269;51.894;4.622;2022-12-29T12:01:31;9.43;;;1.50;;
38499;SDS011;24269;51.894;4.622;2022-12-29T12:06:29;6.68;;;1.38;;
38499;SDS011;24269;51.894;4.622;2022-12-29T12:09:00;9.68;;;1.50;;
38499;SDS011;24269;51.894;4.622;2022-12-29T12:16:31;11.32;;;1.65;;
38499;SDS011;24269;51.894;4.622;2022-12-29T12:21:46;7.43;;;1.13;;
38499;SDS011;24269;51.894;4.622;2022-12-29T12:24:28;9.60;;;1.50;;
38499;SDS011;24269;51.894;4.622;2022-12-29T12:27:12;20.80;;;2.23;;
38499;SDS011;24269;51.894;4.622;2022-12-29T12:29:52;12.00;;;1.40;;
38499;SDS011;24269;51.894;4.622;2022-12-29T12:35:16;10.18;;;1.40;;
38499;SDS011;24269;51.894;4.622;2022-12-29T12:57:21;7.80;;;1.52;;
38499;SDS011;24269;51.894;4.622;2022-12-29T13:00:08;12.63;;;1.80;;
38499;SDS011;24269;51.894;4.622;2022-12-29T13:10:42;7.88;;;2.10;;
38499;SDS011;24269;51.894;4.622;2022-12-29T13:18:56;9.50;;;1.60;;
38499;SDS011;24269;51.894;4.622;2022-12-29T13:27:05;6.47;;;1.00;;
38499;SDS011;24269;51.894;4.622;2022-12-29T13:37:31;4.10;;;0.80;;
38499;SDS011;24269;51.894;4.622;2022-12-29T13:40:10;4.97;;;0.90;;
38499;SDS011;24269;51.894;4.622;2022-12-29T13:42:40;4.25;;;0.80;;
38499;SDS011;24269;51.894;4.622;2022-12-29T13:45:10;5.45;;;1.02;;
38499;SDS011;24269;51.894;4.622;2022-12-29T13:47:55;3.17;;;1.00;;
38499;SDS011;24269;51.894;4.622;2022-12-29T13:50:33;2.60;;;1.08;;
38499;SDS011;24269;51.894;4.622;2022-12-29T13:56:10;5.63;;;1.67;;
38499;SDS011;24269;51.894;4.622;2022-12-29T14:06:19;4.15;;;0.90;;
38499;SDS011;24269;51.894;4.622;2022-12-29T14:08:54;3.85;;;1.05;;
38499;SDS011;24269;51.894;4.622;2022-12-29T14:11:23;5.43;;;1.70;;
38499;SDS011;24269;51.894;4.622;2022-12-29T14:13:55;6.95;;;1.02;;
38499;SDS011;24269;51.894;4.622;2022-12-29T14:16:31;7.15;;;0.98;;
38499;SDS011;24269;51.894;4.622;2022-12-29T14:19:09;5.85;;;1.40;;
38499;SDS011;24269;51.894;4.622;2022-12-29T14:21:49;10.10;;;1.13;;
38499;SDS011;24269;51.894;4.622;2022-12-29T14:34:49;4.82;;;1.00;;
38499;SDS011;24269;51.894;4.622;2022-12-29T14:37:31;5.25;;;1.30;;
38499;SDS011;24269;51.894;4.622;2022-12-29T14:42:44;6.93;;;1.27;;
38499;SDS011;24269;51.894;4.622;2022-12-29T14:47:43;8.00;;;1.45;;
38499;SDS011;24269;51.894;4.622;2022-12-29T14:53:01;7.53;;;1.52;;
38499;SDS011;24269;51.894;4.622;2022-12-29T14:55:40;5.82;;;1.60;;
38499;SDS011;24269;51.894;4.622;2022-12-29T15:00:43;6.88;;;1.08;;
38499;SDS011;24269;51.894;4.622;2022-12-29T15:03:28;7.15;;;1.50;;
38499;SDS011;24269;51.894;4.622;2022-12-29T15:05:57;5.13;;;0.95;;
38499;SDS011;24269;51.894;4.622;2022-12-29T15:08:32;5.95;;;0.95;;
38499;SDS011;24269;51.894;4.622;2022-12-29T15:13:37;8.23;;;1.08;;
38499;SDS011;24269;51.894;4.622;2022-12-29T15:16:05;5.88;;;1.02;;
38499;SDS011;24269;51.894;4.622;2022-12-29T15:18:50;5.38;;;1.15;;
38499;SDS011;24269;51.894;4.622;2022-12-29T15:21:24;7.32;;;1.13;;
38499;SDS011;24269;51.894;4.622;2022-12-29T15:24:09;6.65;;;1.45;;
38499;SDS011;24269;51.894;4.622;2022-12-29T15:26:36;5.18;;;1.40;;
38499;SDS011;24269;51.894;4.622;2022-12-29T15:29:04;3.03;;;0.85;;
38499;SDS011;24269;51.894;4.622;2022-12-29T15:31:30;7.10;;;1.13;;
38499;SDS011;24269;51.894;4.622;2022-12-29T15:34:29;5.50;;;0.90;;
38499;SDS011;24269;51.894;4.622;2022-12-29T15:36:49;4.50;;;1.20;;
38499;SDS011;24269;51.894;4.622;2022-12-29T15:39:34;6.32;;;1.00;;
38499;SDS011;24269;51.894;4.622;2022-12-29T15:42:02;5.10;;;0.75;;
38499;SDS011;24269;51.894;4.622;2022-12-29T15:44:38;3.42;;;0.93;;
38499;SDS011;24269;51.894;4.622;2022-12-29T15:47:14;3.88;;;0.75;;
38499;SDS011;24269;51.894;4.622;2022-12-29T15:50:04;6.38;;;1.85;;
38499;SDS011;24269;51.894;4.622;2022-12-29T15:52:39;5.00;;;1.20;;
38499;SDS011;24269;51.894;4.622;2022-12-29T15:55:05;3.47;;;0.95;;
38499;SDS011;24269;51.894;4.622;2022-12-29T15:57:42;6.38;;;1.17;;
38499;SDS011;24269;51.894;4.622;2022-12-29T16:00:27;6.45;;;1.17;;
38499;SDS011;24269;51.894;4.622;2022-12-29T16:02:55;3.20;;;0.93;;
38499;SDS011;24269;51.894;4.622;2022-12-29T16:05:23;4.35;;;0.73;;
38499;SDS011;24269;51.894;4.622;2022-12-29T16:07:56;4.65;;;0.90;;
38499;SDS011;24269;51.894;4.622;2022-12-29T16:10:57;6.88;;;0.80;;
38499;SDS011;24269;51.894;4.622;2022-12-29T16:13:31;4.45;;;0.82;;
38499;SDS011;24269;51.894;4.622;2022-12-29T16:16:13;1.45;;;0.57;;
38499;SDS011;24269;51.894;4.622;2022-12-29T16:18:44;3.60;;;1.00;;
38499;SDS011;24269;51.894;4.622;2022-12-29T16:21:17;5.47;;;0.80;;
38499;SDS011;24269;51.894;4.622;2022-12-29T16:23:52;5.90;;;1.30;;
38499;SDS011;24269;51.894;4.622;2022-12-29T16:26:20;5.03;;;1.00;;
38499;SDS011;24269;51.894;4.622;2022-12-29T16:28:49;5.85;;;1.02;;
38499;SDS011;24269;51.894;4.622;2022-12-29T16:31:33;4.70;;;1.00;;
38499;SDS011;24269;51.894;4.622;2022-12-29T16:34:10;7.90;;;0.70;;
38499;SDS011;24269;51.894;4.622;2022-12-29T16:36:51;4.45;;;1.05;;
38499;SDS011;24269;51.894;4.622;2022-12-29T16:39:38;5.45;;;1.17;;
38499;SDS011;24269;51.894;4.622;2022-12-29T16:45:16;4.38;;;1.52;;
38499;SDS011;24269;51.894;4.622;2022-12-29T16:48:23;3.83;;;1.38;;
38499;SDS011;24269;51.894;4.622;2022-12-29T16:54:01;6.45;;;1.02;;
38499;SDS011;24269;51.894;4.622;2022-12-29T16:56:31;4.80;;;0.95;;
38499;SDS011;24269;51.894;4.622;2022-12-29T16:59:04;7.85;;;2.63;;
38499;SDS011;24269;51.894;4.622;2022-12-29T17:01:29;11.30;;;2.35;;
38499;SDS011;24269;51.894;4.622;2022-12-29T17:04:00;12.57;;;4.22;;
38499;SDS011;24269;51.894;4.622;2022-12-29T17:06:31;7.40;;;1.30;;
38499;SDS011;24269;51.894;4.622;2022-12-29T17:08:57;6.60;;;1.38;;
38499;SDS011;24269;51.894;4.622;2022-12-29T17:11:26;3.65;;;1.15;;
38499;SDS011;24269;51.894;4.622;2022-12-29T17:14:16;5.30;;;1.20;;
38499;SDS011;24269;51.894;4.622;2022-12-29T17:16:45;4.88;;;1.55;;
38499;SDS011;24269;51.894;4.622;2022-12-29T17:19:18;7.57;;;1.20;;
38499;SDS011;24269;51.894;4.622;2022-12-29T17:21:48;8.02;;;1.90;;
38499;SDS011;24269;51.894;4.622;2022-12-29T17:24:15;6.18;;;1.45;;
38499;SDS011;24269;51.894;4.622;2022-12-29T17:26:42;5.80;;;1.60;;
38499;SDS011;24269;51.894;4.622;2022-12-29T17:29:18;2.42;;;1.02;;
38499;SDS011;24269;51.894;4.622;2022-12-29T17:31:54;7.57;;;1.38;;
38499;SDS011;24269;51.894;4.622;2022-12-29T17:34:20;5.20;;;1.10;;
38499;SDS011;24269;51.894;4.622;2022-12-29T17:36:46;4.00;;;1.55;;
38499;SDS011;24269;51.894;4.622;2022-12-29T17:39:12;7.32;;;1.13;;
38499;SDS011;24269;51.894;4.622;2022-12-29T17:41:38;4.63;;;1.02;;
38499;SDS011;24269;51.894;4.622;2022-12-29T17:44:04;5.85;;;1.10;;
38499;SDS011;24269;51.894;4.622;2022-12-29T17:46:31;4.10;;;1.50;;
38499;SDS011;24269;51.894;4.622;2022-12-29T17:48:57;6.47;;;1.25;;
38499;SDS011;24269;51.894;4.622;2022-12-29T17:51:23;7.43;;;1.00;;
38499;SDS011;24269;51.894;4.622;2022-12-29T17:53:49;5.53;;;1.20;;
38499;SDS011;24269;51.894;4.622;2022-12-29T17:56:16;7.60;;;1.00;;
38499;SDS011;24269;51.894;4.622;2022-12-29T17:58:42;11.88;;;6.93;;